Time;durP1;ratioP1;P1;durP2;ratioP2;P2;SDS_P1;SDS_P2;PMS_P1;PMS_P2;Temp;Humidity;BMP_temperature;BMP_pressure;BME280_temperature;BME280_humidity;BME280_pressure;Samples;Min_cycle;Max_cycle;Signal;HPM_P1;HPM_P2
2021/12/10 00:02:08;;;;;;;6.63;3.13;;;;;;;;;;5022636;28;20025;-72
2021/12/10 00:04:37;;;;;;;6.72;3.08;;;;;;;;;;5030048;28;20104;-71
2021/12/10 00:07:10;;;;;;;16.33;7.25;;;;;;;;;;5031172;28;20061;-72
2021/12/10 00:09:41;;;;;;;20.25;8.18;;;;;;;;;;5026543;28;20061;-72
2021/12/10 00:12:12;;;;;;;24.55;7.07;;;;;;;;;;5017880;28;20042;-72
2021/12/10 00:14:38;;;;;;;12.07;5.78;;;;;;;;;;5029097;28;20420;-72
2021/12/10 00:17:07;;;;;;;24.52;9.10;;;;;;;;;;5026875;28;20027;-72
2021/12/10 00:19:38;;;;;;;29.08;10.38;;;;;;;;;;5027616;28;20013;-72
2021/12/10 00:22:09;;;;;;;21.80;7.93;;;;;;;;;;5025804;28;20116;-72
2021/12/10 00:24:37;;;;;;;18.98;5.05;;;;;;;;;;5010821;28;20411;-72
2021/12/10 00:27:05;;;;;;;13.27;5.70;;;;;;;;;;5027772;28;20608;-72
2021/12/10 00:29:32;;;;;;;6.05;3.13;;;;;;;;;;5027042;28;20041;-72
2021/12/10 00:32:16;;;;;;;9.57;4.28;;;;;;;;;;5028550;28;20549;-71
2021/12/10 00:34:46;;;;;;;13.80;3.72;;;;;;;;;;5010223;28;20699;-73
2021/12/10 00:37:15;;;;;;;4.97;2.72;;;;;;;;;;5028625;28;20041;-72
2021/12/10 00:39:48;;;;;;;13.95;3.22;;;;;;;;;;5027125;28;20557;-71
2021/12/10 00:42:17;;;;;;;6.35;2.63;;;;;;;;;;5027244;28;20056;-72
2021/12/10 00:44:43;;;;;;;5.20;2.65;;;;;;;;;;5022346;28;20029;-72
2021/12/10 00:47:08;;;;;;;6.78;2.95;;;;;;;;;;5023353;28;20062;-72
2021/12/10 00:49:35;;;;;;;7.78;3.15;;;;;;;;;;5010216;28;20048;-72
2021/12/10 00:52:01;;;;;;;7.75;3.33;;;;;;;;;;5026632;28;20135;-72
2021/12/10 00:54:26;;;;;;;7.35;2.60;;;;;;;;;;5026764;28;20122;-71
2021/12/10 00:56:52;;;;;;;8.27;2.28;;;;;;;;;;5010609;28;20044;-72
2021/12/10 00:59:20;;;;;;;8.23;3.15;;;;;;;;;;5027845;28;20478;-72
2021/12/10 01:01:47;;;;;;;9.50;2.70;;;;;;;;;;5011582;28;20030;-71
2021/12/10 01:04:20;;;;;;;8.98;3.35;;;;;;;;;;5021563;28;20445;-71
2021/12/10 01:06:48;;;;;;;11.13;3.80;;;;;;;;;;5010849;28;20034;-71
2021/12/10 01:09:24;;;;;;;8.93;2.65;;;;;;;;;;5010505;28;20025;-72
2021/12/10 01:11:54;;;;;;;6.30;2.58;;;;;;;;;;5028590;28;20033;-71
2021/12/10 01:14:37;;;;;;;7.07;3.30;;;;;;;;;;5023981;28;20029;-71
2021/12/10 01:25:54;;;;;;;7.88;2.58;;;;;;;;;;5028003;28;20044;-71
2021/12/10 01:28:08;;;;;;;6.93;3.03;;;;;;;;;;5020187;28;20558;-71
2021/12/10 01:30:37;;;;;;;7.03;3.10;;;;;;;;;;5015728;28;20116;-71
2021/12/10 01:33:09;;;;;;;7.80;2.88;;;;;;;;;;5028089;28;20122;-71
2021/12/10 01:35:43;;;;;;;10.88;4.20;;;;;;;;;;5010123;28;20064;-72
2021/12/10 01:38:10;;;;;;;5.00;2.40;;;;;;;;;;5010396;28;20025;-72
2021/12/10 01:40:41;;;;;;;5.57;2.33;;;;;;;;;;5025520;28;20030;-71
2021/12/10 01:43:10;;;;;;;8.68;3.40;;;;;;;;;;5036425;28;20122;-72
2021/12/10 01:45:46;;;;;;;9.60;3.53;;;;;;;;;;5027782;28;20048;-71
2021/12/10 01:48:16;;;;;;;8.18;3.65;;;;;;;;;;5027654;28;20622;-71
2021/12/10 01:50:41;;;;;;;8.27;3.45;;;;;;;;;;5012291;28;20051;-72
2021/12/10 01:53:10;;;;;;;8.40;3.70;;;;;;;;;;5006963;28;20030;-72
2021/12/10 01:55:39;;;;;;;14.43;4.82;;;;;;;;;;4993945;28;20074;-72
2021/12/10 01:58:07;;;;;;;11.63;4.07;;;;;;;;;;5007251;28;20048;-71
2021/12/10 02:00:37;;;;;;;9.82;3.35;;;;;;;;;;4992920;28;20042;-71
2021/12/10 02:03:03;;;;;;;8.15;3.40;;;;;;;;;;5026780;28;20058;-72
2021/12/10 02:05:28;;;;;;;8.95;3.60;;;;;;;;;;5022080;28;20045;-72
2021/12/10 02:07:54;;;;;;;3.38;2.10;;;;;;;;;;5028632;28;20025;-72
2021/12/10 02:10:22;;;;;;;8.32;2.60;;;;;;;;;;5005405;28;20061;-72
2021/12/10 02:12:49;;;;;;;8.38;2.40;;;;;;;;;;5012285;28;20503;-71
2021/12/10 02:15:15;;;;;;;2.15;1.13;;;;;;;;;;5015869;28;20046;-72
2021/12/10 02:17:46;;;;;;;3.53;0.90;;;;;;;;;;4994311;28;20084;-72
2021/12/10 02:20:32;;;;;;;1.75;1.17;;;;;;;;;;5017967;28;20034;-72
2021/12/10 02:22:59;;;;;;;1.02;0.65;;;;;;;;;;5008221;28;20026;-72
2021/12/10 02:25:29;;;;;;;2.72;1.88;;;;;;;;;;5007239;28;20538;-72
2021/12/10 02:27:55;;;;;;;2.08;1.20;;;;;;;;;;5015197;28;20037;-72
2021/12/10 02:30:22;;;;;;;1.27;0.75;;;;;;;;;;5024840;28;20053;-72
2021/12/10 02:32:48;;;;;;;3.55;1.02;;;;;;;;;;5014299;28;20068;-72
2021/12/10 02:35:15;;;;;;;1.92;0.90;;;;;;;;;;5009350;28;20053;-72
2021/12/10 02:37:43;;;;;;;1.67;0.60;;;;;;;;;;5015629;28;20017;-72
2021/12/10 02:40:11;;;;;;;2.75;1.00;;;;;;;;;;5028236;28;20029;-71
2021/12/10 02:42:38;;;;;;;0.70;0.70;;;;;;;;;;5015559;28;20034;-72
2021/12/10 02:45:08;;;;;;;3.60;1.08;;;;;;;;;;5016227;28;20065;-71
2021/12/10 02:47:34;;;;;;;1.35;1.05;;;;;;;;;;5017210;28;20095;-72
2021/12/10 02:49:59;;;;;;;1.77;0.82;;;;;;;;;;5016156;28;20046;-72
2021/12/10 02:52:27;;;;;;;1.83;0.80;;;;;;;;;;5016814;28;20038;-71
2021/12/10 02:54:52;;;;;;;3.50;0.80;;;;;;;;;;4993644;28;20037;-71
2021/12/10 02:57:18;;;;;;;1.58;1.05;;;;;;;;;;5009697;28;20103;-72
2021/12/10 02:59:44;;;;;;;1.17;0.75;;;;;;;;;;5021223;28;20083;-72
2021/12/10 03:02:14;;;;;;;2.75;1.08;;;;;;;;;;5018293;28;20430;-72
2021/12/10 03:04:41;;;;;;;2.78;0.63;;;;;;;;;;5027770;28;20110;-71
2021/12/10 03:07:14;;;;;;;2.25;0.93;;;;;;;;;;5009471;28;20054;-71
2021/12/10 03:09:42;;;;;;;0.80;0.50;;;;;;;;;;5017411;28;20041;-72
2021/12/10 03:12:09;;;;;;;4.85;1.20;;;;;;;;;;5011595;28;20034;-71
2021/12/10 03:14:41;;;;;;;3.20;0.70;;;;;;;;;;5011580;28;20664;-72
2021/12/10 03:17:12;;;;;;;1.85;0.80;;;;;;;;;;5011005;28;20491;-72
2021/12/10 03:19:38;;;;;;;2.55;0.77;;;;;;;;;;5004407;28;20044;-72
2021/12/10 03:22:06;;;;;;;1.33;0.80;;;;;;;;;;5001019;28;20042;-72
2021/12/10 03:24:31;;;;;;;1.38;0.57;;;;;;;;;;5024443;28;20045;-72
2021/12/10 03:27:01;;;;;;;1.70;0.77;;;;;;;;;;5018924;28;20184;-71
2021/12/10 03:29:28;;;;;;;0.68;0.50;;;;;;;;;;5009452;28;20199;-72
2021/12/10 03:31:55;;;;;;;1.85;0.32;;;;;;;;;;5009846;28;20034;-72
2021/12/10 03:34:21;;;;;;;1.23;0.85;;;;;;;;;;5015289;28;20200;-72
2021/12/10 03:36:50;;;;;;;1.33;0.70;;;;;;;;;;5021706;28;20044;-71
2021/12/10 03:39:20;;;;;;;2.83;0.73;;;;;;;;;;5009096;28;20045;-72
2021/12/10 03:41:46;;;;;;;1.00;0.77;;;;;;;;;;5008695;28;20045;-72
2021/12/10 03:44:12;;;;;;;2.38;0.90;;;;;;;;;;5017840;28;20033;-72
2021/12/10 03:46:38;;;;;;;1.05;0.60;;;;;;;;;;5026517;28;20057;-72
2021/12/10 03:49:05;;;;;;;1.30;0.90;;;;;;;;;;5017627;28;20049;-72
2021/12/10 03:51:33;;;;;;;1.08;0.65;;;;;;;;;;5029066;28;20077;-72
2021/12/10 03:53:58;;;;;;;1.27;0.70;;;;;;;;;;5025814;28;20041;-72
2021/12/10 03:56:26;;;;;;;2.00;0.50;;;;;;;;;;5006956;28;20029;-72
2021/12/10 03:58:53;;;;;;;1.05;0.70;;;;;;;;;;5029766;28;20036;-72
2021/12/10 04:01:24;;;;;;;0.55;0.55;;;;;;;;;;5018110;28;20049;-72
2021/12/10 04:03:52;;;;;;;1.48;0.80;;;;;;;;;;5028895;28;20167;-71
2021/12/10 04:06:19;;;;;;;5.82;0.68;;;;;;;;;;5028139;28;20777;-72
2021/12/10 04:08:44;;;;;;;3.17;0.60;;;;;;;;;;5006528;28;20030;-72
2021/12/10 04:11:10;;;;;;;2.97;1.05;;;;;;;;;;5021522;28;20021;-72
2021/12/10 04:13:36;;;;;;;1.77;0.82;;;;;;;;;;5008977;28;20507;-72
2021/12/10 04:16:03;;;;;;;0.73;0.70;;;;;;;;;;5026878;28;20522;-71
2021/12/10 04:18:30;;;;;;;2.60;1.00;;;;;;;;;;5021805;28;20136;-72
2021/12/10 04:20:55;;;;;;;2.72;1.10;;;;;;;;;;5007528;28;20040;-72
2021/12/10 04:23:21;;;;;;;2.97;1.33;;;;;;;;;;5011911;28;20430;-71
2021/12/10 04:25:48;;;;;;;2.53;1.30;;;;;;;;;;5028771;28;20051;-72
2021/12/10 04:28:16;;;;;;;4.20;1.67;;;;;;;;;;5027031;28;20041;-72
2021/12/10 04:30:45;;;;;;;1.38;1.05;;;;;;;;;;5026708;28;20045;-72
2021/12/10 04:33:15;;;;;;;3.20;1.33;;;;;;;;;;5028818;28;20423;-72
2021/12/10 04:35:42;;;;;;;2.42;1.40;;;;;;;;;;5027602;28;20178;-72
2021/12/10 04:38:07;;;;;;;4.75;2.05;;;;;;;;;;5027293;28;20601;-72
2021/12/10 04:40:33;;;;;;;5.25;1.92;;;;;;;;;;5011043;28;20104;-72
2021/12/10 04:42:59;;;;;;;8.95;4.93;;;;;;;;;;5023603;28;20038;-71
2021/12/10 04:45:25;;;;;;;7.28;2.95;;;;;;;;;;5028678;28;20044;-72
2021/12/10 04:47:51;;;;;;;7.68;3.35;;;;;;;;;;5027297;28;20029;-72
2021/12/10 04:50:19;;;;;;;10.07;3.28;;;;;;;;;;4991795;28;20048;-72
2021/12/10 04:52:46;;;;;;;15.15;4.97;;;;;;;;;;5006990;28;20423;-71
2021/12/10 04:55:13;;;;;;;11.23;4.22;;;;;;;;;;4988687;28;20091;-71
2021/12/10 04:57:39;;;;;;;9.93;4.22;;;;;;;;;;5007708;28;20048;-71
2021/12/10 05:00:08;;;;;;;9.10;3.47;;;;;;;;;;5010416;28;20089;-71
2021/12/10 05:02:35;;;;;;;8.02;3.20;;;;;;;;;;5008418;28;20053;-71
2021/12/10 05:05:01;;;;;;;7.20;3.28;;;;;;;;;;4988497;28;20507;-72
2021/12/10 05:07:30;;;;;;;6.53;2.50;;;;;;;;;;4998206;28;20028;-72
2021/12/10 05:09:56;;;;;;;29.83;5.55;;;;;;;;;;4997452;28;20073;-72
2021/12/10 05:12:22;;;;;;;11.60;3.88;;;;;;;;;;5006225;28;20123;-72
2021/12/10 05:14:47;;;;;;;10.25;4.53;;;;;;;;;;5006101;28;20041;-72
2021/12/10 05:17:14;;;;;;;14.63;4.47;;;;;;;;;;5007417;28;20022;-72
2021/12/10 05:19:41;;;;;;;12.18;4.03;;;;;;;;;;5008494;28;20037;-72
2021/12/10 05:22:09;;;;;;;11.73;3.97;;;;;;;;;;5000964;28;20062;-72
2021/12/10 05:24:34;;;;;;;8.23;3.30;;;;;;;;;;5007196;28;20582;-72
2021/12/10 05:27:00;;;;;;;10.82;3.90;;;;;;;;;;5008078;28;20033;-72
2021/12/10 05:29:26;;;;;;;7.10;2.85;;;;;;;;;;5010377;28;20477;-72
2021/12/10 05:31:52;;;;;;;2.72;1.63;;;;;;;;;;5012901;28;20101;-72
2021/12/10 05:34:18;;;;;;;7.03;2.38;;;;;;;;;;5010802;28;20045;-72
2021/12/10 05:36:44;;;;;;;6.43;2.65;;;;;;;;;;5012251;28;20033;-72
2021/12/10 05:39:10;;;;;;;5.90;3.00;;;;;;;;;;5010319;28;20030;-72
2021/12/10 05:41:36;;;;;;;6.78;2.30;;;;;;;;;;5008853;28;20033;-72
2021/12/10 05:44:02;;;;;;;4.85;1.17;;;;;;;;;;5008852;28;20030;-72
2021/12/10 05:46:27;;;;;;;3.30;1.20;;;;;;;;;;4993477;28;20052;-72
2021/12/10 05:48:53;;;;;;;4.60;2.10;;;;;;;;;;5018748;28;20534;-72
2021/12/10 05:51:19;;;;;;;0.68;0.68;;;;;;;;;;5011311;28;20030;-72
2021/12/10 05:53:44;;;;;;;2.45;1.20;;;;;;;;;;5011212;28;20037;-72
2021/12/10 05:56:10;;;;;;;3.08;1.30;;;;;;;;;;5002649;28;20037;-72
2021/12/10 05:58:36;;;;;;;2.67;1.30;;;;;;;;;;5010317;28;20125;-72
2021/12/10 06:01:11;;;;;;;4.43;1.98;;;;;;;;;;5011545;28;20595;-72
2021/12/10 06:03:39;;;;;;;3.88;1.65;;;;;;;;;;4993381;28;20061;-71
2021/12/10 06:06:07;;;;;;;5.38;1.48;;;;;;;;;;4993811;28;20030;-73
2021/12/10 06:08:32;;;;;;;4.00;1.63;;;;;;;;;;5010423;28;20049;-72
2021/12/10 06:10:59;;;;;;;3.95;1.23;;;;;;;;;;5006459;28;20026;-72
2021/12/10 06:13:25;;;;;;;5.78;2.78;;;;;;;;;;5010599;28;20816;-72
2021/12/10 06:15:51;;;;;;;4.45;2.25;;;;;;;;;;5007474;28;20030;-71
2021/12/10 06:18:16;;;;;;;9.13;4.45;;;;;;;;;;5010031;28;20036;-71
2021/12/10 06:20:46;;;;;;;10.10;3.80;;;;;;;;;;5010553;28;20435;-71
2021/12/10 06:23:12;;;;;;;8.45;3.03;;;;;;;;;;5011549;28;20607;-72
2021/12/10 06:25:38;;;;;;;7.55;3.42;;;;;;;;;;4993897;28;20023;-72
2021/12/10 06:28:05;;;;;;;5.30;2.75;;;;;;;;;;5020493;28;20110;-71
2021/12/10 06:30:34;;;;;;;5.97;2.33;;;;;;;;;;5012043;28;20038;-71
2021/12/10 06:33:01;;;;;;;2.67;1.60;;;;;;;;;;5010195;28;20112;-72
2021/12/10 06:35:29;;;;;;;3.20;1.52;;;;;;;;;;5010561;28;20137;-71
2021/12/10 06:37:55;;;;;;;7.20;2.10;;;;;;;;;;5005614;28;20105;-71
2021/12/10 06:40:23;;;;;;;7.75;2.35;;;;;;;;;;4991298;28;20550;-72
2021/12/10 06:42:50;;;;;;;3.67;1.98;;;;;;;;;;5005575;28;20092;-71
2021/12/10 06:45:18;;;;;;;3.83;1.30;;;;;;;;;;5011110;28;20046;-72
2021/12/10 06:47:47;;;;;;;3.15;1.73;;;;;;;;;;5009248;28;20026;-72
2021/12/10 06:50:15;;;;;;;5.60;1.52;;;;;;;;;;4992827;28;20041;-71
2021/12/10 06:52:41;;;;;;;5.47;1.48;;;;;;;;;;5011646;28;20488;-72
2021/12/10 06:55:07;;;;;;;6.55;2.20;;;;;;;;;;5011832;28;20064;-72
2021/12/10 06:57:32;;;;;;;4.22;2.10;;;;;;;;;;4992376;28;20042;-72
2021/12/10 06:59:57;;;;;;;5.78;2.35;;;;;;;;;;5008539;28;20110;-71
2021/12/10 07:02:23;;;;;;;4.38;1.75;;;;;;;;;;5013940;28;20037;-72
2021/12/10 07:04:48;;;;;;;3.42;1.10;;;;;;;;;;5010370;28;20510;-71
2021/12/10 07:07:14;;;;;;;1.02;0.85;;;;;;;;;;5011329;28;20030;-71
2021/12/10 07:09:40;;;;;;;1.02;0.63;;;;;;;;;;5011798;28;20034;-71
2021/12/10 07:12:07;;;;;;;0.30;0.30;;;;;;;;;;5006938;28;20049;-72
2021/12/10 07:14:33;;;;;;;1.20;0.90;;;;;;;;;;5013741;28;20030;-72
2021/12/10 07:16:58;;;;;;;1.38;0.30;;;;;;;;;;5002258;28;20396;-72
2021/12/10 07:19:26;;;;;;;2.20;0.85;;;;;;;;;;5008876;28;20507;-72
2021/12/10 07:21:52;;;;;;;1.80;1.17;;;;;;;;;;5009765;28;20033;-72
2021/12/10 07:24:19;;;;;;;1.05;0.70;;;;;;;;;;5009358;28;20038;-70
2021/12/10 07:26:45;;;;;;;1.05;0.70;;;;;;;;;;5006849;28;20033;-69
2021/12/10 07:29:11;;;;;;;4.25;0.70;;;;;;;;;;5009511;28;20402;-70
2021/12/10 07:31:39;;;;;;;0.98;0.57;;;;;;;;;;5010580;28;20565;-70
2021/12/10 07:34:05;;;;;;;0.50;0.50;;;;;;;;;;5009027;28;20084;-70
2021/12/10 07:36:32;;;;;;;1.33;0.77;;;;;;;;;;5008425;28;20108;-70
2021/12/10 07:38:57;;;;;;;0.95;0.60;;;;;;;;;;4991817;28;20495;-70
2021/12/10 07:41:24;;;;;;;0.63;0.35;;;;;;;;;;5018375;28;20069;-70
2021/12/10 07:43:50;;;;;;;2.53;0.70;;;;;;;;;;5011805;28;20030;-69
2021/12/10 07:46:15;;;;;;;1.50;0.70;;;;;;;;;;5018586;28;20057;-70
2021/12/10 07:48:43;;;;;;;0.82;0.80;;;;;;;;;;5014151;28;20046;-69
2021/12/10 07:51:15;;;;;;;0.93;0.63;;;;;;;;;;5028307;28;20050;-70
2021/12/10 07:53:41;;;;;;;1.27;0.75;;;;;;;;;;5028661;28;20064;-69
2021/12/10 07:56:09;;;;;;;4.43;1.50;;;;;;;;;;5027634;28;20558;-70
2021/12/10 07:58:34;;;;;;;1.98;1.25;;;;;;;;;;5029660;28;20586;-69
2021/12/10 08:01:06;;;;;;;1.92;0.98;;;;;;;;;;5026306;28;20152;-72
2021/12/10 08:03:31;;;;;;;3.10;1.30;;;;;;;;;;5027224;28;20691;-71
2021/12/10 08:05:57;;;;;;;3.45;1.02;;;;;;;;;;5027837;28;20040;-69
2021/12/10 08:08:22;;;;;;;2.15;1.20;;;;;;;;;;5029137;28;20029;-70
2021/12/10 08:10:48;;;;;;;1.45;1.10;;;;;;;;;;5018486;28;20068;-70
2021/12/10 08:13:15;;;;;;;7.45;2.15;;;;;;;;;;5026441;28;20501;-69
2021/12/10 08:15:41;;;;;;;10.18;2.88;;;;;;;;;;5021094;28;20200;-69
2021/12/10 08:18:06;;;;;;;8.18;2.58;;;;;;;;;;5002230;28;20148;-69
2021/12/10 08:20:33;;;;;;;12.93;3.85;;;;;;;;;;5023190;28;20124;-74
2021/12/10 08:22:58;;;;;;;10.27;3.97;;;;;;;;;;5008972;28;20021;-69
2021/12/10 08:25:26;;;;;;;9.52;4.03;;;;;;;;;;5029115;28;20048;-69
2021/12/10 08:27:53;;;;;;;9.32;3.25;;;;;;;;;;5027495;28;20041;-71
2021/12/10 08:30:22;;;;;;;14.10;4.68;;;;;;;;;;5029068;28;20044;-69
2021/12/10 08:32:49;;;;;;;19.48;5.20;;;;;;;;;;5000774;28;20037;-71
2021/12/10 08:35:20;;;;;;;22.08;5.85;;;;;;;;;;5003756;28;20038;-67
2021/12/10 08:37:46;;;;;;;24.95;7.15;;;;;;;;;;5007422;28;20034;-71
2021/12/10 08:40:16;;;;;;;27.42;6.97;;;;;;;;;;5015883;28;20380;-72
2021/12/10 08:42:41;;;;;;;22.50;7.10;;;;;;;;;;5007232;28;20483;-71
2021/12/10 08:45:08;;;;;;;26.05;7.97;;;;;;;;;;5023382;28;20044;-71
2021/12/10 08:47:33;;;;;;;25.85;7.88;;;;;;;;;;5018317;28;20698;-75
2021/12/10 08:49:59;;;;;;;20.65;6.28;;;;;;;;;;4989258;28;20128;-79
2021/12/10 08:52:24;;;;;;;21.40;6.55;;;;;;;;;;4996652;28;20030;-73
2021/12/10 08:54:50;;;;;;;22.63;7.53;;;;;;;;;;4988750;28;20065;-70
2021/12/10 08:57:16;;;;;;;29.45;7.00;;;;;;;;;;4986791;28;20037;-71
2021/12/10 08:59:42;;;;;;;24.30;5.90;;;;;;;;;;5006314;28;20591;-72
2021/12/10 09:02:12;;;;;;;24.40;6.43;;;;;;;;;;5002448;28;20034;-71
2021/12/10 09:04:39;;;;;;;24.20;5.93;;;;;;;;;;5004944;28;20034;-73
2021/12/10 09:07:08;;;;;;;19.77;5.70;;;;;;;;;;5007394;28;20655;-73
2021/12/10 09:09:35;;;;;;;18.55;4.65;;;;;;;;;;5005384;28;20038;-74
2021/12/10 09:12:04;;;;;;;15.82;4.47;;;;;;;;;;5004366;28;20515;-74
2021/12/10 09:14:38;;;;;;;13.15;3.92;;;;;;;;;;5004122;28;20041;-75
2021/12/10 09:17:04;;;;;;;14.82;3.72;;;;;;;;;;4993473;28;20637;-76
2021/12/10 09:19:29;;;;;;;8.52;2.72;;;;;;;;;;5007218;28;20120;-71
2021/12/10 09:21:56;;;;;;;7.20;2.60;;;;;;;;;;5006524;28;20038;-74
2021/12/10 09:24:23;;;;;;;3.70;2.13;;;;;;;;;;5006832;28;20049;-73
2021/12/10 09:26:54;;;;;;;4.63;1.92;;;;;;;;;;5006035;28;20042;-74
2021/12/10 09:29:19;;;;;;;3.28;1.77;;;;;;;;;;5006284;28;20030;-71
2021/12/10 09:31:45;;;;;;;2.47;1.50;;;;;;;;;;5010060;28;20043;-72
2021/12/10 09:34:13;;;;;;;11.98;1.90;;;;;;;;;;5004880;28;20037;-71
2021/12/10 09:36:39;;;;;;;3.83;2.22;;;;;;;;;;5005147;28;20037;-72
2021/12/10 09:39:07;;;;;;;3.65;2.30;;;;;;;;;;5004473;28;20065;-70
2021/12/10 09:41:33;;;;;;;4.47;2.70;;;;;;;;;;5006107;28;20046;-72
2021/12/10 09:43:58;;;;;;;4.55;2.60;;;;;;;;;;4987809;28;20030;-73
2021/12/10 09:46:24;;;;;;;4.53;2.33;;;;;;;;;;5005509;28;20057;-72
2021/12/10 09:48:50;;;;;;;4.20;2.65;;;;;;;;;;4997302;28;20046;-74
2021/12/10 09:51:24;;;;;;;8.52;5.55;;;;;;;;;;5004249;28;20209;-73
2021/12/10 09:53:53;;;;;;;9.75;4.60;;;;;;;;;;5006433;28;20049;-79
2021/12/10 09:56:20;;;;;;;7.35;4.60;;;;;;;;;;5006858;28;20582;-75
2021/12/10 09:58:45;;;;;;;10.93;3.55;;;;;;;;;;5005817;28;20530;-75
2021/12/10 10:01:21;;;;;;;7.75;4.35;;;;;;;;;;5001384;28;20041;-77
2021/12/10 10:03:49;;;;;;;6.72;3.25;;;;;;;;;;4977624;28;20388;-75
2021/12/10 10:06:15;;;;;;;7.72;3.45;;;;;;;;;;5002964;28;20069;-71
2021/12/10 10:08:42;;;;;;;3.55;2.03;;;;;;;;;;5005276;28;20130;-75
2021/12/10 10:11:15;;;;;;;5.28;3.67;;;;;;;;;;4993248;28;20496;-77
2021/12/10 10:13:42;;;;;;;;;;;;;;;;;;4989409;28;20059;-78
2021/12/10 10:16:09;;;;;;;5.15;2.40;;;;;;;;;;5011723;28;19925;-78
2021/12/10 10:18:36;;;;;;;7.93;4.25;;;;;;;;;;4995910;28;20038;-77
2021/12/10 10:21:15;;;;;;;3.92;2.47;;;;;;;;;;4984412;28;20038;-71
2021/12/10 10:23:42;;;;;;;6.95;3.83;;;;;;;;;;4968594;28;20046;-72
2021/12/10 10:26:15;;;;;;;7.32;2.95;;;;;;;;;;5006290;28;20034;-69
2021/12/10 10:28:41;;;;;;;5.72;2.67;;;;;;;;;;5007538;28;20026;-74
2021/12/10 10:31:12;;;;;;;2.50;1.58;;;;;;;;;;4990039;28;20037;-74
2021/12/10 10:33:39;;;;;;;3.55;1.75;;;;;;;;;;5009636;28;20086;-73
2021/12/10 10:36:18;;;;;;;4.28;2.45;;;;;;;;;;5000548;28;20034;-77
2021/12/10 10:38:47;;;;;;;4.05;1.92;;;;;;;;;;4981671;28;20038;-68
2021/12/10 10:41:14;;;;;;;3.72;2.55;;;;;;;;;;5008186;28;20029;-73
2021/12/10 10:43:39;;;;;;;1.65;1.17;;;;;;;;;;4999266;28;20030;-71
2021/12/10 10:46:05;;;;;;;5.38;2.85;;;;;;;;;;5004777;28;20037;-77
2021/12/10 10:48:31;;;;;;;6.05;3.33;;;;;;;;;;5015822;28;20041;-74
2021/12/10 10:51:04;;;;;;;3.15;2.10;;;;;;;;;;5010733;28;20044;-73
2021/12/10 10:53:38;;;;;;;3.13;1.92;;;;;;;;;;5022994;28;20041;-76
2021/12/10 10:56:07;;;;;;;4.78;2.45;;;;;;;;;;5026725;28;20037;-71
2021/12/10 10:58:42;;;;;;;5.82;2.65;;;;;;;;;;5026236;28;20037;-71
2021/12/10 11:01:23;;;;;;;7.40;3.03;;;;;;;;;;5026684;28;20053;-73
2021/12/10 11:04:02;;;;;;;8.82;4.07;;;;;;;;;;5014604;28;20049;-74
2021/12/10 11:06:33;;;;;;;8.57;4.13;;;;;;;;;;5014713;28;20668;-72
2021/12/10 11:09:21;;;;;;;10.07;5.20;;;;;;;;;;5027774;28;20067;-73
2021/12/10 11:11:52;;;;;;;11.25;5.07;;;;;;;;;;5026094;28;20061;-71
2021/12/10 11:14:33;;;;;;;7.90;3.65;;;;;;;;;;5017134;28;20029;-72
2021/12/10 11:17:09;;;;;;;6.85;3.47;;;;;;;;;;5026531;28;20091;-71
2021/12/10 11:19:35;;;;;;;8.10;3.78;;;;;;;;;;5026867;28;20063;-75
2021/12/10 11:22:08;;;;;;;10.68;4.15;;;;;;;;;;5027447;28;20096;-71
2021/12/10 11:24:37;;;;;;;11.33;4.47;;;;;;;;;;5023295;28;20049;-71
2021/12/10 11:27:09;;;;;;;7.70;2.92;;;;;;;;;;5027197;28;20696;-73
2021/12/10 11:29:42;;;;;;;7.00;3.30;;;;;;;;;;5023234;28;20120;-71
2021/12/10 11:32:38;;;;;;;12.20;5.07;;;;;;;;;;5008473;28;20052;-76
2021/12/10 11:35:36;;;;;;;8.25;3.17;;;;;;;;;;5024352;28;20056;-75
2021/12/10 11:38:08;;;;;;;9.38;3.13;;;;;;;;;;5014881;28;20458;-71
2021/12/10 11:40:57;;;;;;;3.88;1.98;;;;;;;;;;5016458;28;21020;-71
2021/12/10 11:49:00;;;;;;;4.18;2.10;;;;;;;;;;5023176;28;20053;-71
2021/12/10 11:51:34;;;;;;;6.25;3.20;;;;;;;;;;5021591;28;20068;-70
2021/12/10 11:54:05;;;;;;;3.22;1.75;;;;;;;;;;5026389;28;20108;-70
2021/12/10 11:56:40;;;;;;;5.68;3.05;;;;;;;;;;5009315;28;20042;-70
2021/12/10 11:59:15;;;;;;;2.70;1.48;;;;;;;;;;5008628;28;20112;-75
2021/12/10 12:01:51;;;;;;;7.95;2.97;;;;;;;;;;5024395;28;20032;-77
2021/12/10 12:04:27;;;;;;;7.38;2.60;;;;;;;;;;5025875;28;20073;-70
2021/12/10 12:07:18;;;;;;;6.03;2.70;;;;;;;;;;5024296;28;20037;-71
2021/12/10 12:09:48;;;;;;;7.68;2.10;;;;;;;;;;5024009;28;20038;-70
2021/12/10 12:12:18;;;;;;;6.18;2.10;;;;;;;;;;5027264;28;20037;-70
2021/12/10 12:14:51;;;;;;;4.80;1.63;;;;;;;;;;5008995;28;20395;-70
2021/12/10 12:17:36;;;;;;;13.27;2.42;;;;;;;;;;4999348;28;20076;-71
2021/12/10 12:20:22;;;;;;;4.88;1.98;;;;;;;;;;5025229;28;20086;-74
2021/12/10 12:25:50;;;;;;;1.85;0.90;;;;;;;;;;5012082;28;20049;-69
2021/12/10 12:28:18;;;;;;;3.20;1.23;;;;;;;;;;5028021;28;20418;-72
2021/12/10 12:30:55;;;;;;;3.72;1.60;;;;;;;;;;5024355;28;20124;-72
2021/12/10 12:33:25;;;;;;;4.35;1.33;;;;;;;;;;5025061;28;20045;-72
2021/12/10 12:35:52;;;;;;;4.70;1.50;;;;;;;;;;5006454;28;20037;-72
2021/12/10 12:38:29;;;;;;;1.95;1.10;;;;;;;;;;5024699;28;20037;-72
2021/12/10 12:41:22;;;;;;;6.03;1.55;;;;;;;;;;5024111;28;20028;-72
2021/12/10 12:44:08;;;;;;;1.13;1.02;;;;;;;;;;5021938;28;20080;-72
2021/12/10 12:47:04;;;;;;;1.52;0.93;;;;;;;;;;5021214;28;20581;-71
2021/12/10 12:49:48;;;;;;;2.78;1.10;;;;;;;;;;4995866;28;20066;-71
2021/12/10 12:52:16;;;;;;;5.35;1.17;;;;;;;;;;5006217;28;20052;-71
2021/12/10 12:55:07;;;;;;;3.42;1.10;;;;;;;;;;5004735;28;20044;-71
2021/12/10 12:57:39;;;;;;;7.10;2.10;;;;;;;;;;5010552;28;20411;-71
2021/12/10 13:00:09;;;;;;;6.13;1.95;;;;;;;;;;5004833;28;20046;-72
2021/12/10 13:02:34;;;;;;;7.75;2.92;;;;;;;;;;5000737;28;20474;-72
2021/12/10 13:05:00;;;;;;;4.07;1.95;;;;;;;;;;5001674;28;20657;-72
2021/12/10 13:07:27;;;;;;;4.18;1.60;;;;;;;;;;5007114;28;20037;-72
2021/12/10 13:09:56;;;;;;;5.25;1.40;;;;;;;;;;5002636;28;20035;-72
2021/12/10 13:13:06;;;;;;;6.63;1.13;;;;;;;;;;5006163;28;20077;-72
2021/12/10 13:15:33;;;;;;;5.05;1.30;;;;;;;;;;4980799;28;20053;-72
2021/12/10 13:18:02;;;;;;;5.70;1.92;;;;;;;;;;4987805;28;20471;-72
2021/12/10 13:20:33;;;;;;;13.80;2.15;;;;;;;;;;5006924;28;20034;-72
2021/12/10 13:23:03;;;;;;;2.05;1.08;;;;;;;;;;5002971;28;20038;-72
2021/12/10 13:25:31;;;;;;;3.25;1.13;;;;;;;;;;4999469;28;20125;-72
2021/12/10 13:27:57;;;;;;;9.07;1.92;;;;;;;;;;5003335;28;20053;-72
2021/12/10 13:30:25;;;;;;;2.05;1.27;;;;;;;;;;5005387;28;20038;-72
2021/12/10 13:32:52;;;;;;;5.40;1.27;;;;;;;;;;4986982;28;20053;-72
2021/12/10 13:35:20;;;;;;;11.15;2.80;;;;;;;;;;4988272;28;20029;-72
2021/12/10 13:37:48;;;;;;;6.43;2.58;;;;;;;;;;5006615;28;20030;-72
2021/12/10 13:40:15;;;;;;;5.78;2.28;;;;;;;;;;5006918;28;20073;-72
2021/12/10 13:42:41;;;;;;;12.48;3.90;;;;;;;;;;5004701;28;20030;-72
2021/12/10 13:45:08;;;;;;;8.35;2.40;;;;;;;;;;5004775;28;20025;-72
2021/12/10 13:47:49;;;;;;;12.90;3.28;;;;;;;;;;4988493;28;20068;-73
2021/12/10 13:50:22;;;;;;;4.47;1.65;;;;;;;;;;5025279;28;20077;-73
2021/12/10 13:52:47;;;;;;;10.77;3.70;;;;;;;;;;5015836;28;20025;-73
2021/12/10 13:55:24;;;;;;;9.80;3.92;;;;;;;;;;5008659;28;20045;-73
2021/12/10 13:58:08;;;;;;;12.15;4.18;;;;;;;;;;5008926;28;20048;-73
2021/12/10 14:00:34;;;;;;;9.50;3.22;;;;;;;;;;5009000;28;20057;-73
2021/12/10 14:02:59;;;;;;;8.98;3.42;;;;;;;;;;5010236;28;20579;-73
2021/12/10 14:05:34;;;;;;;6.30;1.80;;;;;;;;;;5009760;28;20034;-73
2021/12/10 14:08:08;;;;;;;8.25;2.65;;;;;;;;;;5014956;28;20041;-73
2021/12/10 14:10:41;;;;;;;8.52;2.90;;;;;;;;;;4996793;28;20034;-73
2021/12/10 14:13:08;;;;;;;8.18;2.38;;;;;;;;;;4991059;28;20065;-73
2021/12/10 14:15:51;;;;;;;11.18;2.92;;;;;;;;;;5005671;28;20125;-73
2021/12/10 14:18:24;;;;;;;11.20;4.45;;;;;;;;;;4992123;28;20049;-72
2021/12/10 14:21:01;;;;;;;8.02;2.30;;;;;;;;;;4984512;28;20069;-74
2021/12/10 14:23:55;;;;;;;11.82;3.17;;;;;;;;;;5001828;28;20115;-75
2021/12/10 14:26:29;;;;;;;7.43;3.00;;;;;;;;;;5007207;28;20021;-75
2021/12/10 14:29:01;;;;;;;11.05;3.72;;;;;;;;;;5013690;28;20028;-77
2021/12/10 14:31:35;;;;;;;13.50;4.45;;;;;;;;;;5006616;28;20041;-75
2021/12/10 14:34:07;;;;;;;13.77;4.20;;;;;;;;;;4998034;28;20089;-74
2021/12/10 14:36:33;;;;;;;18.27;4.20;;;;;;;;;;4999082;28;20121;-73
2021/12/10 14:39:01;;;;;;;14.00;3.92;;;;;;;;;;5001507;28;20128;-75
2021/12/10 14:41:28;;;;;;;16.17;4.30;;;;;;;;;;5004929;28;20033;-73
2021/12/10 14:43:56;;;;;;;7.43;2.33;;;;;;;;;;5007932;28;20587;-75
2021/12/10 14:46:39;;;;;;;6.57;1.95;;;;;;;;;;5008062;28;20042;-76
2021/12/10 14:49:26;;;;;;;8.60;2.83;;;;;;;;;;5010983;28;20590;-84
2021/12/10 14:52:26;;;;;;;15.90;4.43;;;;;;;;;;5011518;28;20038;-72
2021/12/10 14:54:51;;;;;;;6.25;1.85;;;;;;;;;;5005962;28;20038;-78
2021/12/10 14:57:17;;;;;;;11.63;3.95;;;;;;;;;;5007302;28;20048;-77
2021/12/10 14:59:43;;;;;;;8.65;2.28;;;;;;;;;;4986824;28;20034;-78
2021/12/10 15:02:22;;;;;;;10.68;3.15;;;;;;;;;;5000766;28;20037;-77
2021/12/10 15:04:53;;;;;;;14.00;3.08;;;;;;;;;;4998944;28;20515;-78
2021/12/10 15:07:32;;;;;;;7.40;2.22;;;;;;;;;;4999668;28;20527;-79
2021/12/10 15:10:22;;;;;;;12.68;2.90;;;;;;;;;;4994931;28;20046;-73
2021/12/10 15:12:53;;;;;;;10.10;2.65;;;;;;;;;;5007795;28;20113;-81